createdAt,value
2023-05-15T00:02:57.179Z,162226.84
2023-05-15T00:06:01.548Z,162213.81
2023-05-15T00:09:05.497Z,162203.31
2023-05-15T00:12:09.544Z,162202.00
2023-05-15T00:15:13.782Z,162207.19
2023-05-15T00:18:17.822Z,162224.25
2023-05-15T00:21:21.984Z,162213.81
2023-05-15T00:24:25.861Z,162196.75
2023-05-15T00:27:29.797Z,162187.59
2023-05-15T00:30:34.148Z,162177.06
2023-05-15T00:33:38.217Z,162161.34
2023-05-15T00:36:42.523Z,162145.66
2023-05-15T00:39:46.673Z,162140.38
2023-05-15T00:42:51.201Z,162119.47
2023-05-15T00:45:55.683Z,162112.91
2023-05-15T00:49:00.981Z,162097.19
2023-05-15T00:52:08.371Z,162099.81
2023-05-15T00:55:12.723Z,162101.13
2023-05-15T00:58:18.037Z,162101.13
2023-05-15T01:01:22.059Z,162107.69
2023-05-15T01:04:25.818Z,162111.56
2023-05-15T01:07:34.898Z,162095.88
2023-05-15T01:10:40.964Z,162101.13
2023-05-15T01:13:45.120Z,162118.19
2023-05-15T01:16:49.078Z,162114.22
2023-05-15T01:19:52.966Z,162108.97
2023-05-15T01:23:15.709Z,162097.19
2023-05-15T01:26:30.480Z,162094.53
2023-05-15T01:29:59.166Z,162086.72
2023-05-15T01:33:17.208Z,162074.94
2023-05-15T01:36:33.254Z,162081.44
2023-05-15T01:39:39.485Z,162082.78
2023-05-15T01:42:51.727Z,162073.63
2023-05-15T01:45:57.718Z,162072.34
2023-05-15T01:49:03.598Z,162061.78
2023-05-15T01:52:16.731Z,162053.97
2023-05-15T01:55:22.228Z,162030.38
2023-05-15T01:58:27.420Z,162033.00
2023-05-15T02:01:33.149Z,162030.38
2023-05-15T02:04:38.490Z,162029.06
2023-05-15T02:07:44.370Z,162027.72
2023-05-15T02:10:49.589Z,162021.22
2023-05-15T02:13:56.781Z,162015.97
2023-05-15T02:17:00.955Z,162010.69
2023-05-15T02:20:08.608Z,161997.66
2023-05-15T02:23:12.872Z,161985.84
2023-05-15T02:26:39.219Z,161980.63
2023-05-15T02:30:22.710Z,161987.16
2023-05-15T02:33:49.441Z,161980.63
2023-05-15T02:36:57.891Z,161984.56
2023-05-15T02:40:06.748Z,161997.66
2023-05-15T02:43:11.379Z,161977.97
2023-05-15T02:46:16.167Z,161959.66
2023-05-15T02:49:21.914Z,161946.56
2023-05-15T02:52:26.170Z,161951.84
2023-05-15T02:55:31.186Z,161953.09
2023-05-15T02:58:36.054Z,161954.44
2023-05-15T03:01:40.309Z,161964.91
2023-05-15T03:04:44.282Z,161951.84
2023-05-15T03:07:48.506Z,161943.94
2023-05-15T03:10:52.688Z,161951.84
2023-05-15T03:13:56.719Z,161954.44
2023-05-15T03:17:00.759Z,161964.91
2023-05-15T03:20:05.607Z,161967.53
2023-05-15T03:23:09.899Z,161964.91
2023-05-15T03:26:13.716Z,161975.34
2023-05-15T03:29:17.770Z,161967.53
2023-05-15T03:32:21.927Z,161951.84
2023-05-15T03:35:27.089Z,161930.84
2023-05-15T03:38:31.411Z,161926.94
2023-05-15T03:41:35.414Z,161951.84
2023-05-15T03:44:39.311Z,161954.44
2023-05-15T03:47:43.940Z,161953.09
2023-05-15T03:50:48.187Z,161951.84
2023-05-15T03:53:52.772Z,161955.75
2023-05-15T03:56:56.973Z,161950.50
2023-05-15T04:00:03.808Z,161946.56
2023-05-15T04:03:08.313Z,161932.13
2023-05-15T04:06:12.393Z,161941.28
2023-05-15T04:09:17.033Z,161964.91
2023-05-15T04:12:22.115Z,161958.31
2023-05-15T04:15:28.648Z,161922.97
2023-05-15T04:18:32.748Z,161933.47
2023-05-15T04:21:36.873Z,161968.84
2023-05-15T04:24:40.625Z,161975.34
2023-05-15T04:27:44.867Z,161979.28
2023-05-15T04:30:48.889Z,161943.94
2023-05-15T04:33:52.616Z,161949.16
2023-05-15T04:36:56.545Z,161943.94
2023-05-15T04:40:00.786Z,161933.47
2023-05-15T04:43:04.623Z,161947.88
2023-05-15T04:46:08.278Z,161974.06
2023-05-15T04:49:12.148Z,161991.09
2023-05-15T04:52:16.909Z,162023.84
2023-05-15T04:55:20.730Z,162044.75
2023-05-15T04:58:24.856Z,162065.75
2023-05-15T05:01:28.982Z,162080.16
2023-05-15T05:04:32.820Z,162105.06
2023-05-15T05:07:36.847Z,162112.91
2023-05-15T05:10:40.921Z,162118.19
2023-05-15T05:13:49.419Z,162111.56
2023-05-15T05:16:53.605Z,162105.06
2023-05-15T05:19:57.726Z,162119.47
2023-05-15T05:23:01.866Z,162127.28
2023-05-15T05:26:06.289Z,162152.19
2023-05-15T05:29:10.991Z,162158.75
2023-05-15T05:32:14.911Z,162177.06
2023-05-15T05:35:19.134Z,162198.03
2023-05-15T05:38:23.298Z,162230.81
2023-05-15T05:41:27.450Z,162266.22
2023-05-15T05:44:31.815Z,162305.53
2023-05-15T05:47:35.888Z,162315.97
2023-05-15T05:50:40.519Z,162327.78
2023-05-15T05:53:44.920Z,162338.28
2023-05-15T05:56:50.195Z,162317.31
2023-05-15T05:59:54.501Z,162350.06
2023-05-15T06:02:59.826Z,162365.78
2023-05-15T06:06:04.026Z,162373.66
2023-05-15T06:09:07.858Z,162364.44
2023-05-15T06:12:12.492Z,162376.22
2023-05-15T06:15:16.865Z,162355.31
2023-05-15T06:18:21.175Z,162412.97
2023-05-15T06:21:25.180Z,162415.59
2023-05-15T06:24:29.333Z,162444.41
2023-05-15T06:27:33.788Z,162462.81
2023-05-15T06:30:38.258Z,162410.31
2023-05-15T06:33:42.692Z,162430.03
2023-05-15T06:36:46.873Z,162451.03
2023-05-15T06:39:51.128Z,162454.91
2023-05-15T06:42:55.466Z,162469.31
2023-05-15T06:45:59.554Z,162515.19
2023-05-15T06:49:03.521Z,162530.91
2023-05-15T06:52:07.517Z,162550.63
2023-05-15T06:55:11.828Z,162600.41
2023-05-15T06:58:17.926Z,162627.94
2023-05-15T07:01:21.983Z,162656.78
2023-05-15T07:04:26.294Z,162694.84
2023-05-15T07:07:30.438Z,162743.31
2023-05-15T07:10:34.571Z,162787.91
2023-05-15T07:13:38.462Z,162774.81
2023-05-15T07:16:42.885Z,162806.28
2023-05-15T07:19:46.865Z,162844.31
2023-05-15T07:22:56.146Z,162903.38
2023-05-15T07:26:00.914Z,162950.53
2023-05-15T07:29:05.468Z,163008.28
2023-05-15T07:32:09.454Z,163063.34
2023-05-15T07:35:13.579Z,163118.50
2023-05-15T07:38:18.188Z,163139.47
2023-05-15T07:41:22.573Z,163241.81
2023-05-15T07:44:26.802Z,163354.69
2023-05-15T07:47:30.826Z,163478.13
2023-05-15T07:50:35.259Z,163614.66
2023-05-15T07:53:42.482Z,163806.41
2023-05-15T07:56:46.332Z,164092.81
2023-05-15T07:59:50.918Z,164554.13
2023-05-15T08:02:55.299Z,164926.28
2023-05-15T08:06:00.111Z,165267.03
2023-05-15T08:09:04.655Z,165431.56
2023-05-15T08:12:24.318Z,165633.00
2023-05-15T08:15:29.220Z,165526.34
2023-05-15T08:18:33.380Z,165578.94
2023-05-15T08:21:38.199Z,165507.94
2023-05-15T08:24:42.710Z,165567.13
2023-05-15T08:27:46.834Z,165763.31
2023-05-15T08:30:50.705Z,165740.97
2023-05-15T08:33:54.907Z,165727.75
2023-05-15T08:36:59.282Z,165639.53
2023-05-15T08:40:05.997Z,165652.69
2023-05-15T08:43:16.271Z,165603.97
2023-05-15T08:46:20.872Z,165673.78
2023-05-15T08:49:28.333Z,165510.53
2023-05-15T08:52:33.662Z,165278.88
2023-05-15T08:55:38.198Z,165128.88
2023-05-15T08:58:43.287Z,165193.38
2023-05-15T09:01:47.365Z,165271.00
2023-05-15T09:04:51.961Z,165065.72
2023-05-15T09:07:58.892Z,164978.91
2023-05-15T09:11:04.417Z,164963.09
2023-05-15T09:14:09.204Z,164999.94
2023-05-15T09:17:14.126Z,164981.53
2023-05-15T09:20:26.910Z,164964.44
2023-05-15T09:23:31.228Z,164935.50
2023-05-15T09:26:35.060Z,164889.44
2023-05-15T09:29:39.928Z,164730.31
2023-05-15T09:32:44.296Z,164694.78
2023-05-15T09:35:48.960Z,164690.88
2023-05-15T09:38:59.506Z,164726.38
2023-05-15T09:42:09.769Z,164705.34
2023-05-15T09:45:18.238Z,164513.34
2023-05-15T09:48:22.324Z,164421.31
2023-05-15T09:51:27.866Z,164416.06
2023-05-15T09:54:31.813Z,164326.72
2023-05-15T09:57:36.116Z,164287.28
2023-05-15T10:00:47.715Z,164326.72
2023-05-15T10:03:59.959Z,164372.69
2023-05-15T10:07:08.112Z,164339.88
2023-05-15T10:10:12.754Z,164376.66
2023-05-15T10:13:17.107Z,164350.38
2023-05-15T10:16:24.758Z,164355.63
2023-05-15T10:19:29.286Z,164368.78
2023-05-15T10:22:37.947Z,164385.88
2023-05-15T10:25:47.963Z,164350.38
2023-05-15T10:28:53.022Z,164370.03
2023-05-15T10:31:59.964Z,164397.69
2023-05-15T10:35:04.253Z,164401.63
2023-05-15T10:38:09.214Z,164384.53
2023-05-15T10:41:18.132Z,164303.00
2023-05-15T10:44:23.515Z,164291.19
2023-05-15T10:47:29.786Z,164305.69
2023-05-15T10:50:36.317Z,164347.75
2023-05-15T10:53:40.504Z,164402.91
2023-05-15T10:56:44.571Z,164438.44
2023-05-15T10:59:48.661Z,164410.81
2023-05-15T11:02:56.359Z,164439.78
2023-05-15T11:06:15.851Z,164481.81
2023-05-15T11:09:25.839Z,164525.19
2023-05-15T11:12:55.505Z,164519.91
2023-05-15T11:15:59.599Z,164523.84
2023-05-15T11:19:03.613Z,164458.16
2023-05-15T11:22:33.665Z,164462.06
2023-05-15T11:25:38.004Z,164462.06
2023-05-15T11:28:43.690Z,164488.41
2023-05-15T11:31:47.752Z,164589.63
2023-05-15T11:34:51.874Z,164577.78
2023-05-15T11:37:58.505Z,164517.31
2023-05-15T11:41:03.355Z,164447.66
2023-05-15T11:44:07.818Z,164463.41
2023-05-15T11:47:12.038Z,164396.38
2023-05-15T11:50:16.725Z,164384.53
2023-05-15T11:53:23.196Z,164370.03
2023-05-15T11:56:30.805Z,164304.34
2023-05-15T11:59:34.863Z,164226.84
2023-05-15T12:02:39.868Z,164145.34
2023-05-15T12:05:54.109Z,164086.16
2023-05-15T12:09:02.277Z,164032.31
2023-05-15T12:12:12.787Z,164024.44
2023-05-15T12:15:17.441Z,164007.38
2023-05-15T12:18:21.776Z,164013.94
2023-05-15T12:21:29.030Z,164046.78
2023-05-15T12:24:35.693Z,164087.50
2023-05-15T12:27:40.543Z,164113.84
2023-05-15T12:30:45.083Z,164129.56
2023-05-15T12:33:48.864Z,164167.66
2023-05-15T12:36:52.866Z,164221.53
2023-05-15T12:40:00.997Z,164305.69
2023-05-15T12:43:07.181Z,164360.88
2023-05-15T12:46:14.156Z,164416.06
2023-05-15T12:49:22.947Z,164430.53
2023-05-15T12:52:31.322Z,164410.81
2023-05-15T12:55:36.584Z,164447.66
2023-05-15T12:58:41.132Z,164468.69
2023-05-15T13:01:45.550Z,164473.91
2023-05-15T13:04:49.713Z,164426.63
2023-05-15T13:07:54.361Z,164466.03
2023-05-15T13:10:59.848Z,164443.69
2023-05-15T13:14:11.149Z,164480.47
2023-05-15T13:17:15.022Z,164473.91
2023-05-15T13:20:19.103Z,164438.44
2023-05-15T13:23:24.914Z,164400.34
2023-05-15T13:26:29.101Z,164419.97
2023-05-15T13:29:33.057Z,164450.22
2023-05-15T13:32:36.937Z,164414.78
2023-05-15T13:35:42.960Z,164304.34
2023-05-15T13:38:47.187Z,164170.28
2023-05-15T13:41:51.157Z,164045.47
2023-05-15T13:44:54.802Z,163962.72
2023-05-15T13:47:59.117Z,163870.72
2023-05-15T13:51:03.339Z,163793.25
2023-05-15T13:54:07.366Z,163717.06
2023-05-15T13:57:11.205Z,163665.88
2023-05-15T14:00:15.581Z,163601.53
2023-05-15T14:03:19.468Z,163533.22
2023-05-15T14:06:24.115Z,163468.94
2023-05-15T14:09:28.537Z,163488.63
2023-05-15T14:12:32.690Z,163528.03
2023-05-15T14:15:36.648Z,163577.91
2023-05-15T14:18:40.937Z,163646.16
2023-05-15T14:21:45.404Z,163682.91
2023-05-15T14:24:49.673Z,163722.34
2023-05-15T14:27:53.810Z,163760.41
2023-05-15T14:30:58.018Z,163802.44
2023-05-15T14:34:02.245Z,163837.88
2023-05-15T14:37:06.490Z,163876.03
2023-05-15T14:40:11.185Z,163907.50
2023-05-15T14:43:14.980Z,163943.03
2023-05-15T14:46:19.026Z,163957.41
2023-05-15T14:49:23.052Z,163977.16
2023-05-15T14:52:27.095Z,163991.59
2023-05-15T14:55:31.111Z,163996.88
2023-05-15T14:58:34.941Z,163995.53
2023-05-15T15:01:39.005Z,163977.16
2023-05-15T15:04:42.902Z,163978.44
2023-05-15T15:08:01.967Z,163992.94
2023-05-15T15:11:06.421Z,164011.28
2023-05-15T15:14:10.192Z,164025.78
2023-05-15T15:17:14.500Z,163983.72
2023-05-15T15:20:19.900Z,163916.72
2023-05-15T15:23:23.898Z,163891.75
2023-05-15T15:26:28.198Z,163861.53
2023-05-15T15:29:32.319Z,163865.47
2023-05-15T15:32:37.251Z,163881.25
2023-05-15T15:35:41.395Z,163845.75
2023-05-15T15:38:45.915Z,163839.22
2023-05-15T15:41:50.086Z,163845.75
2023-05-15T15:44:55.410Z,163865.47
2023-05-15T15:47:59.896Z,163911.47
2023-05-15T15:51:04.281Z,163935.09
2023-05-15T15:54:08.164Z,163924.56
2023-05-15T15:57:16.445Z,163924.56
2023-05-15T16:00:20.721Z,163933.78
2023-05-15T16:03:24.834Z,163941.69
2023-05-15T16:06:29.054Z,163911.47
2023-05-15T16:09:33.592Z,163860.25
2023-05-15T16:12:39.146Z,163848.41
2023-05-15T16:15:43.036Z,163819.56
2023-05-15T16:18:47.438Z,163774.84
2023-05-15T16:21:51.425Z,163748.59
2023-05-15T16:24:55.712Z,163713.09
2023-05-15T16:27:59.306Z,163685.59
2023-05-15T16:31:03.647Z,163647.47
2023-05-15T16:34:08.629Z,163626.47
2023-05-15T16:37:12.914Z,163627.81
2023-05-15T16:40:17.080Z,163633.00
2023-05-15T16:43:21.856Z,163633.00
2023-05-15T16:46:26.260Z,163626.47
2023-05-15T16:49:30.398Z,163631.75
2023-05-15T16:52:34.424Z,163635.66
2023-05-15T16:55:38.743Z,163646.16
2023-05-15T16:58:42.779Z,163657.94
2023-05-15T17:01:46.826Z,163684.25
2023-05-15T17:04:50.798Z,163694.72
2023-05-15T17:07:54.987Z,163690.78
2023-05-15T17:10:58.974Z,163701.28
2023-05-15T17:14:02.880Z,163709.22
2023-05-15T17:17:06.543Z,163714.44
2023-05-15T17:20:11.685Z,163705.25
2023-05-15T17:23:16.019Z,163706.59
2023-05-15T17:26:21.456Z,163723.63
2023-05-15T17:29:25.613Z,163717.06
2023-05-15T17:32:30.194Z,163714.44
2023-05-15T17:35:34.608Z,163714.44
2023-05-15T17:38:38.596Z,163722.34
2023-05-15T17:41:42.648Z,163732.84
2023-05-15T17:44:46.939Z,163727.59
2023-05-15T17:47:50.741Z,163714.44
2023-05-15T17:50:54.927Z,163710.53
2023-05-15T17:53:58.770Z,163688.22
2023-05-15T17:57:02.947Z,163681.63
2023-05-15T18:00:08.250Z,163660.63
2023-05-15T18:03:12.454Z,163655.38
2023-05-15T18:06:17.347Z,163660.63
2023-05-15T18:09:23.857Z,163655.38
2023-05-15T18:12:28.467Z,163651.44
2023-05-15T18:15:32.763Z,163651.44
2023-05-15T18:18:36.844Z,163643.56
2023-05-15T18:21:40.858Z,163631.75
2023-05-15T18:24:45.164Z,163617.28
2023-05-15T18:27:49.217Z,163598.91
2023-05-15T18:30:53.179Z,163598.91
2023-05-15T18:33:56.920Z,163597.59
2023-05-15T18:37:01.055Z,163583.13
2023-05-15T18:40:05.581Z,163572.66
2023-05-15T18:43:09.729Z,163571.31
2023-05-15T18:46:13.928Z,163548.97
2023-05-15T18:49:18.094Z,163531.94
2023-05-15T18:52:22.156Z,163520.06
2023-05-15T18:55:27.473Z,163507.00
2023-05-15T18:58:31.995Z,163500.41
2023-05-15T19:01:36.101Z,163495.13
2023-05-15T19:04:40.258Z,163480.75
2023-05-15T19:07:45.156Z,163479.41
2023-05-15T19:10:50.397Z,163457.16
2023-05-15T19:13:54.611Z,163454.47
2023-05-15T19:16:59.071Z,163415.09
2023-05-15T19:20:03.780Z,163395.41
2023-05-15T19:23:08.672Z,163377.03
2023-05-15T19:26:13.341Z,163358.66
2023-05-15T19:29:17.608Z,163346.84
2023-05-15T19:32:25.369Z,163317.97
2023-05-15T19:35:29.562Z,163302.19
2023-05-15T19:38:33.577Z,163262.84
2023-05-15T19:41:37.668Z,163240.53
2023-05-15T19:44:42.168Z,163220.81
2023-05-15T19:47:46.600Z,163191.94
2023-05-15T19:50:51.143Z,163190.66
2023-05-15T19:53:56.847Z,163184.09
2023-05-15T19:57:02.843Z,163163.13
2023-05-15T20:00:08.228Z,163144.75
2023-05-15T20:03:12.654Z,163135.56
2023-05-15T20:06:16.849Z,163121.09
2023-05-15T20:09:20.995Z,163115.88
2023-05-15T20:12:24.839Z,163109.31
2023-05-15T20:15:29.427Z,163094.91
2023-05-15T20:18:34.798Z,163098.84
2023-05-15T20:21:39.239Z,163084.38
2023-05-15T20:24:43.094Z,163076.47
2023-05-15T20:27:47.075Z,163069.97
2023-05-15T20:30:52.440Z,163079.09
2023-05-15T20:33:56.945Z,163049.00
2023-05-15T20:37:02.590Z,163043.72
2023-05-15T20:40:08.040Z,163037.16
2023-05-15T20:43:12.094Z,163026.63
2023-05-15T20:46:16.940Z,163009.56
2023-05-15T20:49:21.038Z,163005.66
2023-05-15T20:52:25.066Z,162995.19
2023-05-15T20:55:29.557Z,162971.50
2023-05-15T20:58:33.713Z,162953.22
2023-05-15T21:01:37.615Z,162943.97
2023-05-15T21:04:41.826Z,162942.69
2023-05-15T21:07:46.174Z,162932.19
2023-05-15T21:10:52.998Z,162911.22
2023-05-15T21:13:57.006Z,162902.06
2023-05-15T21:17:01.028Z,162881.03
2023-05-15T21:20:05.297Z,162875.78
2023-05-15T21:23:09.250Z,162869.22
2023-05-15T21:26:13.687Z,162850.84
2023-05-15T21:29:18.096Z,162846.94
2023-05-15T21:32:23.371Z,162839.06
2023-05-15T21:35:28.957Z,162820.75
2023-05-15T21:38:33.133Z,162806.28
2023-05-15T21:41:37.547Z,162798.41
2023-05-15T21:44:41.646Z,162790.56
2023-05-15T21:47:45.834Z,162781.38
2023-05-15T21:50:49.557Z,162766.94
2023-05-15T21:53:53.556Z,162748.59
2023-05-15T21:56:57.697Z,162732.88
2023-05-15T22:00:02.580Z,162714.47
2023-05-15T22:03:06.791Z,162709.25
2023-05-15T22:06:11.179Z,162694.84
2023-05-15T22:09:15.694Z,162690.88
2023-05-15T22:12:19.937Z,162680.41
2023-05-15T22:15:24.371Z,162664.66
2023-05-15T22:18:28.833Z,162639.75
2023-05-15T22:21:32.806Z,162639.75
2023-05-15T22:24:36.842Z,162616.16
2023-05-15T22:27:41.409Z,162609.59
2023-05-15T22:30:45.368Z,162585.97
2023-05-15T22:33:49.575Z,162579.47
2023-05-15T22:40:03.755Z,162558.47
2023-05-15T22:43:07.668Z,162508.69
2023-05-15T22:46:11.667Z,162475.91
2023-05-15T22:49:19.268Z,162470.63
2023-05-15T22:52:23.767Z,162475.91
2023-05-15T22:55:28.641Z,162486.38
2023-05-15T22:58:32.822Z,162495.56
2023-05-15T23:01:37.114Z,162483.75
2023-05-15T23:04:41.340Z,162464.09
2023-05-15T23:07:45.482Z,162456.19
2023-05-15T23:10:49.264Z,162443.09
2023-05-15T23:13:52.971Z,162435.25
2023-05-15T23:16:56.857Z,162430.03
2023-05-15T23:20:01.066Z,162423.44
2023-05-15T23:23:05.292Z,162403.81
2023-05-15T23:26:09.117Z,162394.59
2023-05-15T23:29:12.840Z,162389.38
2023-05-15T23:32:16.640Z,162375.00
2023-05-15T23:35:20.646Z,162365.78
2023-05-15T23:38:24.576Z,162352.66
2023-05-15T23:41:28.470Z,162350.06
2023-05-15T23:44:32.523Z,162347.41
2023-05-15T23:47:37.029Z,162331.69
2023-05-15T23:50:40.975Z,162315.97
2023-05-15T23:53:45.076Z,162312.06
2023-05-15T23:56:48.862Z,162313.41
2023-05-15T23:59:53.126Z,162305.53
